createdAt,value
2023-04-05T00:00:56.435Z,39.33
2023-04-05T00:03:24.748Z,39.62
2023-04-05T00:05:55.069Z,39.55
2023-04-05T00:08:27.365Z,39.33
2023-04-05T00:10:55.246Z,39.10
2023-04-05T00:13:23.470Z,38.99
2023-04-05T00:15:51.243Z,38.96
2023-04-05T00:18:22.356Z,38.93
2023-04-05T00:20:53.350Z,38.81
2023-04-05T00:23:21.598Z,38.49
2023-04-05T00:25:49.257Z,38.52
2023-04-05T00:28:17.346Z,38.26
2023-04-05T00:30:45.029Z,37.90
2023-04-05T00:33:14.082Z,37.92
2023-04-05T00:35:41.903Z,37.82
2023-04-05T00:38:10.038Z,37.35
2023-04-05T00:40:37.791Z,36.98
2023-04-05T00:43:06.096Z,36.91
2023-04-05T00:45:33.929Z,36.60
2023-04-05T00:48:01.986Z,36.59
2023-04-05T00:50:31.194Z,36.10
2023-04-05T00:52:59.309Z,35.68
2023-04-05T00:55:27.579Z,35.97
2023-04-05T00:57:59.162Z,35.89
2023-04-05T01:00:27.501Z,35.65
2023-04-05T01:03:02.890Z,35.36
2023-04-05T01:05:43.029Z,35.54
2023-04-05T01:08:33.185Z,35.59
2023-04-05T01:11:03.920Z,34.94
2023-04-05T01:13:32.316Z,35.38
2023-04-05T01:16:00.120Z,34.90
2023-04-05T01:18:28.374Z,34.61
2023-04-05T01:21:23.374Z,34.62
2023-04-05T01:23:58.853Z,34.48
2023-04-05T01:26:26.654Z,34.23
2023-04-05T01:28:57.872Z,34.30
2023-04-05T01:31:25.717Z,34.46
2023-04-05T01:34:07.278Z,34.66
2023-04-05T01:36:39.035Z,34.30
2023-04-05T01:39:08.560Z,34.30
2023-04-05T01:41:39.214Z,34.55
2023-04-05T01:44:08.813Z,34.50
2023-04-05T01:46:37.159Z,33.93
2023-04-05T01:49:05.504Z,34.18
2023-04-05T01:51:33.333Z,33.92
2023-04-05T01:54:01.594Z,34.14
2023-04-05T01:56:29.256Z,34.43
2023-04-05T01:58:57.898Z,34.79
2023-04-05T02:01:25.755Z,34.76
2023-04-05T02:03:53.947Z,35.02
2023-04-05T02:06:23.035Z,34.97
2023-04-05T02:08:51.427Z,35.12
2023-04-05T02:11:19.210Z,35.57
2023-04-05T02:13:47.346Z,35.71
2023-04-05T02:16:15.869Z,35.82
2023-04-05T02:18:51.159Z,36.08
2023-04-05T02:21:18.889Z,36.27
2023-04-05T02:23:46.904Z,36.21
2023-04-05T02:26:14.608Z,36.66
2023-04-05T02:28:42.668Z,36.71
2023-04-05T02:31:14.631Z,36.67
2023-04-05T02:33:43.582Z,36.61
2023-04-05T02:36:12.373Z,37.07
2023-04-05T02:38:41.018Z,37.07
2023-04-05T02:41:09.348Z,37.09
2023-04-05T02:43:39.413Z,37.17
2023-04-05T02:46:07.170Z,37.14
2023-04-05T02:48:40.801Z,36.48
2023-04-05T02:51:10.037Z,36.22
2023-04-05T02:53:40.844Z,36.42
2023-04-05T02:56:14.491Z,36.12
2023-04-05T02:58:46.095Z,36.03
2023-04-05T03:01:14.168Z,35.72
2023-04-05T03:03:43.315Z,35.32
2023-04-05T03:06:11.464Z,35.54
2023-04-05T03:08:48.835Z,35.35
2023-04-05T03:11:21.045Z,35.05
2023-04-05T03:13:53.379Z,35.03
2023-04-05T03:16:56.957Z,34.73
2023-04-05T03:19:36.099Z,34.67
2023-04-05T03:22:21.832Z,34.73
2023-04-05T03:24:50.185Z,34.79
2023-04-05T03:27:20.138Z,34.83
2023-04-05T03:30:08.409Z,34.56
2023-04-05T03:32:41.855Z,34.85
2023-04-05T03:35:19.650Z,34.54
2023-04-05T03:37:48.519Z,34.84
2023-04-05T03:40:16.954Z,34.71
2023-04-05T03:42:45.826Z,34.63
2023-04-05T03:45:13.962Z,34.47
2023-04-05T03:47:42.473Z,34.30
2023-04-05T03:50:10.856Z,33.94
2023-04-05T03:52:38.605Z,34.24
2023-04-05T03:55:07.448Z,34.01
2023-04-05T03:57:37.925Z,33.80
2023-04-05T04:00:19.263Z,33.72
2023-04-05T04:03:03.028Z,33.92
2023-04-05T04:05:31.640Z,33.97
2023-04-05T04:08:00.234Z,33.84
2023-04-05T04:10:28.536Z,34.15
2023-04-05T04:12:59.349Z,34.16
2023-04-05T04:15:31.668Z,34.34
2023-04-05T04:18:19.593Z,34.47
2023-04-05T04:21:07.227Z,34.28
2023-04-05T04:23:50.440Z,34.79
2023-04-05T04:26:41.288Z,34.67
2023-04-05T04:29:46.942Z,35.00
2023-04-05T04:32:54.819Z,34.88
2023-04-05T04:35:35.116Z,34.54
2023-04-05T04:38:28.936Z,33.94
2023-04-05T04:41:22.937Z,33.80
2023-04-05T04:44:15.013Z,33.76
2023-04-05T04:47:14.962Z,33.73
2023-04-05T04:50:06.629Z,33.50
2023-04-05T04:52:34.297Z,33.81
2023-04-05T04:55:03.122Z,33.86
2023-04-05T04:57:30.831Z,33.82
2023-04-05T04:59:58.813Z,34.01
2023-04-05T05:02:28.697Z,33.88
2023-04-05T05:04:59.026Z,34.14
2023-04-05T05:07:26.862Z,34.35
2023-04-05T05:09:54.911Z,34.50
2023-04-05T05:12:22.838Z,34.43
2023-04-05T05:14:51.060Z,34.18
2023-04-05T05:17:21.014Z,34.26
2023-04-05T05:19:49.021Z,34.34
2023-04-05T05:22:16.809Z,34.35
2023-04-05T05:24:45.109Z,34.29
2023-04-05T05:27:14.099Z,34.36
2023-04-05T05:29:42.129Z,34.48
2023-04-05T05:32:14.498Z,34.58
2023-04-05T05:34:42.538Z,34.33
2023-04-05T05:37:10.226Z,34.09
2023-04-05T05:39:38.317Z,34.17
2023-04-05T05:42:06.387Z,34.25
2023-04-05T05:44:34.495Z,34.31
2023-04-05T05:47:02.916Z,34.64
2023-04-05T05:49:31.505Z,34.30
2023-04-05T05:51:59.285Z,34.00
2023-04-05T05:54:27.499Z,33.90
2023-04-05T05:56:55.390Z,34.02
2023-04-05T05:59:23.530Z,33.71
2023-04-05T06:01:51.934Z,33.65
2023-04-05T06:04:20.296Z,33.36
2023-04-05T06:06:48.070Z,33.40
2023-04-05T06:09:16.147Z,33.65
2023-04-05T06:11:55.266Z,33.20
2023-04-05T06:14:25.216Z,33.09
2023-04-05T06:16:53.308Z,33.18
2023-04-05T06:19:21.437Z,33.00
2023-04-05T06:21:49.072Z,33.15
2023-04-05T06:24:17.070Z,32.73
2023-04-05T06:26:44.748Z,32.72
2023-04-05T06:29:12.825Z,32.60
2023-04-05T06:31:42.896Z,32.42
2023-04-05T06:34:11.156Z,32.85
2023-04-05T06:36:38.782Z,32.75
2023-04-05T06:39:07.081Z,32.04
2023-04-05T06:41:35.023Z,32.17
2023-04-05T06:44:03.026Z,32.23
2023-04-05T06:46:30.763Z,31.92
2023-04-05T06:48:59.371Z,31.89
2023-04-05T06:51:29.396Z,31.32
2023-04-05T06:53:57.454Z,31.38
2023-04-05T06:56:25.115Z,31.91
2023-04-05T06:58:53.444Z,31.88
2023-04-05T07:01:21.162Z,32.31
2023-04-05T07:03:49.202Z,32.04
2023-04-05T07:06:16.875Z,31.72
2023-04-05T07:08:45.095Z,31.96
2023-04-05T07:11:14.190Z,31.93
2023-04-05T07:13:42.185Z,31.59
2023-04-05T07:16:09.918Z,31.66
2023-04-05T07:18:38.006Z,31.42
2023-04-05T07:21:05.673Z,31.53
2023-04-05T07:23:33.842Z,31.25
2023-04-05T07:26:05.616Z,31.37
2023-04-05T07:28:36.183Z,30.92
2023-04-05T07:31:04.476Z,30.92
2023-04-05T07:33:33.063Z,31.59
2023-04-05T07:36:00.792Z,30.95
2023-04-05T07:38:30.496Z,30.69
2023-04-05T07:40:58.993Z,30.24
2023-04-05T07:43:27.162Z,30.51
2023-04-05T07:46:01.908Z,30.88
2023-04-05T07:48:30.124Z,30.54
2023-04-05T07:51:02.903Z,30.67
2023-04-05T07:53:30.917Z,30.16
2023-04-05T07:55:59.418Z,30.46
2023-04-05T07:58:30.732Z,30.78
2023-04-05T08:01:01.952Z,30.78
2023-04-05T08:03:30.792Z,30.57
2023-04-05T08:05:58.656Z,30.97
2023-04-05T08:08:26.682Z,30.91
2023-04-05T08:10:54.384Z,31.09
2023-04-05T08:13:22.504Z,30.50
2023-04-05T08:15:50.259Z,30.64
2023-04-05T08:18:19.504Z,30.50
2023-04-05T08:20:51.351Z,30.46
2023-04-05T08:23:19.584Z,30.57
2023-04-05T08:25:47.499Z,30.39
2023-04-05T08:28:15.682Z,31.05
2023-04-05T08:30:43.728Z,30.41
2023-04-05T08:33:12.034Z,30.88
2023-04-05T08:35:40.092Z,31.13
2023-04-05T08:38:08.173Z,31.08
2023-04-05T08:40:43.498Z,31.06
2023-04-05T08:43:11.733Z,30.91
2023-04-05T08:45:52.151Z,30.25
2023-04-05T08:48:20.819Z,31.58
2023-04-05T08:50:52.862Z,30.15
2023-04-05T08:53:21.626Z,31.17
2023-04-05T08:55:51.180Z,30.79
2023-04-05T08:58:22.537Z,30.00
2023-04-05T09:00:53.632Z,30.55
2023-04-05T09:03:23.535Z,31.13
2023-04-05T09:05:52.632Z,30.16
2023-04-05T09:08:23.882Z,29.46
2023-04-05T09:10:52.139Z,28.75
2023-04-05T09:13:20.248Z,29.74
2023-04-05T09:15:48.461Z,30.26
2023-04-05T09:18:26.134Z,30.15
2023-04-05T09:21:03.165Z,29.42
2023-04-05T09:23:31.418Z,29.00
2023-04-05T09:25:59.102Z,29.50
2023-04-05T09:28:43.368Z,30.79
2023-04-05T09:31:29.588Z,30.82
2023-04-05T09:34:00.441Z,29.23
2023-04-05T09:36:28.555Z,28.22
2023-04-05T09:39:04.923Z,28.77
2023-04-05T09:41:33.112Z,28.78
2023-04-05T09:44:01.250Z,30.90
2023-04-05T09:46:34.526Z,30.19
2023-04-05T09:49:04.186Z,29.97
2023-04-05T09:51:33.080Z,30.33
2023-04-05T09:54:02.599Z,29.82
2023-04-05T09:56:31.853Z,28.62
2023-04-05T09:59:05.071Z,29.27
2023-04-05T10:01:33.080Z,27.89
2023-04-05T10:04:01.619Z,27.62
2023-04-05T10:06:47.523Z,27.39
2023-04-05T10:09:18.138Z,29.30
2023-04-05T10:11:46.292Z,29.31
2023-04-05T10:14:15.031Z,28.53
2023-04-05T10:16:54.023Z,27.95
2023-04-05T10:19:41.389Z,28.20
2023-04-05T10:22:13.750Z,28.13
2023-04-05T10:24:49.304Z,27.97
2023-04-05T10:27:40.034Z,28.88
2023-04-05T10:30:09.444Z,29.55
2023-04-05T10:32:56.210Z,29.29
2023-04-05T10:35:44.628Z,27.64
2023-04-05T10:38:17.865Z,26.76
2023-04-05T10:40:48.684Z,26.90
2023-04-05T10:43:19.504Z,25.69
2023-04-05T10:45:48.848Z,27.41
2023-04-05T10:48:28.717Z,27.52
2023-04-05T10:50:58.254Z,26.67
2023-04-05T10:53:26.068Z,27.96
2023-04-05T10:55:56.263Z,28.92
2023-04-05T10:58:25.698Z,28.39
2023-04-05T11:00:54.928Z,27.32
2023-04-05T11:03:41.570Z,27.75
2023-04-05T11:06:19.181Z,27.13
2023-04-05T11:08:47.416Z,27.26
2023-04-05T11:11:19.450Z,28.87
2023-04-05T11:13:51.269Z,28.94
2023-04-05T11:16:19.730Z,28.85
2023-04-05T11:18:48.488Z,28.15
2023-04-05T11:21:26.420Z,30.00
2023-04-05T11:24:12.397Z,30.39
2023-04-05T11:26:40.516Z,28.47
2023-04-05T11:29:08.495Z,28.19
2023-04-05T11:31:36.722Z,28.30
2023-04-05T11:34:11.388Z,28.86
2023-04-05T11:36:42.315Z,27.37
2023-04-05T11:39:18.933Z,26.29
2023-04-05T11:41:48.062Z,27.89
2023-04-05T11:44:16.617Z,27.68
2023-04-05T11:46:46.741Z,27.46
2023-04-05T11:49:14.722Z,26.37
2023-04-05T11:51:43.054Z,26.11
2023-04-05T11:54:10.822Z,26.54
2023-04-05T11:56:38.954Z,29.01
2023-04-05T11:59:07.835Z,28.22
2023-04-05T12:01:36.667Z,27.98
2023-04-05T12:04:07.821Z,27.76
2023-04-05T12:06:35.906Z,28.15
2023-04-05T12:09:07.147Z,27.29
2023-04-05T12:11:35.416Z,28.72
2023-04-05T12:14:03.144Z,28.38
2023-04-05T12:16:31.372Z,27.24
2023-04-05T12:19:00.084Z,25.54
2023-04-05T12:21:28.438Z,24.34
2023-04-05T12:23:56.200Z,23.25
2023-04-05T12:26:24.474Z,23.56
2023-04-05T12:28:53.379Z,25.10
2023-04-05T12:31:40.456Z,26.25
2023-04-05T12:34:08.919Z,27.21
2023-04-05T12:36:37.595Z,26.31
2023-04-05T12:39:09.266Z,26.75
2023-04-05T12:41:38.030Z,26.87
2023-04-05T12:44:06.320Z,28.15
2023-04-05T12:46:44.332Z,28.17
2023-04-05T12:49:19.064Z,28.50
2023-04-05T12:51:47.775Z,29.15
2023-04-05T12:54:22.057Z,28.20
2023-04-05T12:56:54.658Z,27.15
2023-04-05T12:59:23.011Z,26.70
2023-04-05T13:01:51.666Z,26.83
2023-04-05T13:04:19.570Z,26.61
2023-04-05T13:06:48.008Z,26.12
2023-04-05T13:09:16.021Z,27.52
2023-04-05T13:11:44.085Z,26.70
2023-04-05T13:14:11.792Z,27.69
2023-04-05T13:16:40.030Z,26.31
2023-04-05T13:19:07.766Z,25.22
2023-04-05T13:21:35.827Z,23.51
2023-04-05T13:24:03.461Z,23.08
2023-04-05T13:26:31.512Z,22.71
2023-04-05T13:28:59.155Z,24.43
2023-04-05T13:31:27.460Z,25.83
2023-04-05T13:33:55.352Z,25.33
2023-04-05T13:36:23.352Z,26.15
2023-04-05T13:38:51.002Z,26.65
2023-04-05T13:41:19.029Z,26.20
2023-04-05T13:43:46.733Z,25.46
2023-04-05T13:46:14.792Z,26.14
2023-04-05T13:48:42.562Z,24.36
2023-04-05T13:51:10.940Z,23.36
2023-04-05T13:53:38.550Z,23.87
2023-04-05T13:56:07.138Z,22.83
2023-04-05T13:58:34.847Z,22.91
2023-04-05T14:01:03.326Z,24.76
2023-04-05T14:03:31.395Z,25.84
2023-04-05T14:05:59.602Z,26.42
2023-04-05T14:08:27.319Z,24.46
2023-04-05T14:10:55.644Z,24.58
2023-04-05T14:13:23.287Z,25.69
2023-04-05T14:15:51.332Z,26.09
2023-04-05T14:18:19.036Z,25.58
2023-04-05T14:20:46.995Z,24.24
2023-04-05T14:23:14.756Z,23.51
2023-04-05T14:25:42.927Z,24.30
2023-04-05T14:28:10.827Z,23.66
2023-04-05T14:30:39.115Z,24.00
2023-04-05T14:33:06.988Z,24.53
2023-04-05T14:35:35.299Z,23.66
2023-04-05T14:38:02.976Z,23.92
2023-04-05T14:40:31.085Z,25.00
2023-04-05T14:42:58.757Z,25.21
2023-04-05T14:45:27.430Z,24.91
2023-04-05T14:47:56.139Z,26.44
2023-04-05T14:50:24.197Z,26.36
2023-04-05T14:52:53.045Z,26.46
2023-04-05T14:55:21.057Z,24.58
2023-04-05T14:57:48.739Z,25.42
2023-04-05T15:00:17.522Z,25.80
2023-04-05T15:02:45.475Z,25.88
2023-04-05T15:05:13.621Z,23.81
2023-04-05T15:07:41.449Z,24.44
2023-04-05T15:10:09.625Z,25.68
2023-04-05T15:12:37.321Z,25.81
2023-04-05T15:15:05.556Z,25.12
2023-04-05T15:17:33.789Z,24.29
2023-04-05T15:20:01.813Z,24.49
2023-04-05T15:22:29.647Z,24.02
2023-04-05T15:24:57.764Z,22.75
2023-04-05T15:27:25.763Z,22.45
2023-04-05T15:29:53.716Z,22.05
2023-04-05T15:32:21.536Z,23.32
2023-04-05T15:34:49.642Z,22.47
2023-04-05T15:37:17.590Z,22.64
2023-04-05T15:39:45.605Z,22.47
2023-04-05T15:42:13.297Z,22.54
2023-04-05T15:44:43.266Z,24.06
2023-04-05T15:47:13.917Z,24.02
2023-04-05T15:49:43.635Z,24.68
2023-04-05T15:52:11.963Z,23.56
2023-04-05T15:54:40.474Z,23.92
2023-04-05T15:57:08.217Z,23.73
2023-04-05T15:59:36.420Z,23.87
2023-04-05T16:02:04.493Z,23.40
2023-04-05T16:04:32.622Z,24.45
2023-04-05T16:07:00.265Z,25.23
2023-04-05T16:09:28.654Z,25.40
2023-04-05T16:11:56.489Z,25.70
2023-04-05T16:14:24.613Z,26.15
2023-04-05T16:16:54.248Z,26.43
2023-04-05T16:19:23.635Z,25.59
2023-04-05T16:21:52.966Z,25.65
2023-04-05T16:24:21.241Z,25.72
2023-04-05T16:26:49.044Z,25.60
2023-04-05T16:29:17.183Z,26.88
2023-04-05T16:31:47.654Z,26.60
2023-04-05T16:34:16.337Z,27.08
2023-04-05T16:36:44.242Z,27.71
2023-04-05T16:39:12.341Z,27.96
2023-04-05T16:41:40.085Z,27.31
2023-04-05T16:44:08.714Z,27.64
2023-04-05T16:46:36.604Z,28.05
2023-04-05T16:49:05.029Z,28.68
2023-04-05T16:51:34.255Z,28.33
2023-04-05T16:54:02.613Z,29.04
2023-04-05T16:56:30.634Z,29.17
2023-04-05T16:58:58.946Z,29.12
2023-04-05T17:01:27.798Z,28.64
2023-04-05T17:03:57.714Z,28.01
2023-04-05T17:06:25.583Z,27.19
2023-04-05T17:08:54.313Z,26.27
2023-04-05T17:11:22.382Z,26.00
2023-04-05T17:13:50.981Z,26.24
2023-04-05T17:16:18.908Z,26.19
2023-04-05T17:18:47.197Z,26.09
2023-04-05T17:21:15.209Z,26.02
2023-04-05T17:23:43.249Z,26.32
2023-04-05T17:26:11.093Z,26.31
2023-04-05T17:28:39.183Z,25.73
2023-04-05T17:31:07.080Z,25.46
2023-04-05T17:33:35.559Z,25.64
2023-04-05T17:36:04.434Z,25.64
2023-04-05T17:38:32.860Z,25.61
2023-04-05T17:41:00.610Z,25.76
2023-04-05T17:43:28.975Z,25.81
2023-04-05T17:45:56.848Z,25.75
2023-04-05T17:48:25.389Z,26.07
2023-04-05T17:50:53.077Z,25.98
2023-04-05T17:53:21.574Z,26.17
2023-04-05T17:55:49.275Z,25.97
2023-04-05T17:58:19.443Z,25.97
2023-04-05T18:00:47.123Z,25.94
2023-04-05T18:03:15.506Z,25.81
2023-04-05T18:05:43.697Z,25.61
2023-04-05T18:08:12.210Z,25.66
2023-04-05T18:10:40.262Z,26.40
2023-04-05T18:13:09.365Z,26.57
2023-04-05T18:15:38.610Z,26.91
2023-04-05T18:18:07.534Z,26.78
2023-04-05T18:20:35.869Z,27.26
2023-04-05T18:23:04.332Z,27.46
2023-04-05T18:25:32.186Z,27.49
2023-04-05T18:28:04.600Z,26.35
2023-04-05T18:30:38.262Z,25.91
2023-04-05T18:33:07.376Z,25.70
2023-04-05T18:35:35.802Z,24.35
2023-04-05T18:38:04.868Z,24.36
2023-04-05T18:40:33.229Z,24.67
2023-04-05T18:43:01.640Z,24.65
2023-04-05T18:45:29.506Z,24.35
2023-04-05T18:47:57.773Z,24.52
2023-04-05T18:50:25.649Z,24.53
2023-04-05T18:52:54.168Z,24.10
2023-04-05T18:55:21.916Z,24.20
2023-04-05T18:57:50.224Z,24.33
2023-04-05T19:00:18.342Z,24.51
2023-04-05T19:02:46.822Z,24.33
2023-04-05T19:05:14.972Z,24.54
2023-04-05T19:07:43.108Z,24.66
2023-04-05T19:10:11.036Z,24.75
2023-04-05T19:12:39.335Z,24.83
2023-04-05T19:15:07.996Z,25.10
2023-04-05T19:17:36.338Z,24.72
2023-04-05T19:20:04.526Z,25.50
2023-04-05T19:22:33.308Z,25.57
2023-04-05T19:25:01.488Z,26.07
2023-04-05T19:27:35.964Z,26.18
2023-04-05T19:30:08.231Z,26.13
2023-04-05T19:32:36.488Z,26.32
2023-04-05T19:35:04.552Z,26.03
2023-04-05T19:37:32.684Z,26.28
2023-04-05T19:40:01.637Z,26.38
2023-04-05T19:42:29.878Z,26.47
2023-04-05T19:44:58.265Z,26.22
2023-04-05T19:47:26.664Z,26.19
2023-04-05T19:49:56.436Z,26.12
2023-04-05T19:52:33.841Z,26.20
2023-04-05T19:55:02.231Z,26.55
2023-04-05T19:57:31.539Z,26.27
2023-04-05T19:59:59.367Z,26.38
2023-04-05T20:02:39.847Z,26.23
2023-04-05T20:05:10.606Z,26.48
2023-04-05T20:07:38.770Z,26.55
2023-04-05T20:10:14.446Z,26.54
2023-04-05T20:12:42.500Z,26.73
2023-04-05T20:15:11.809Z,26.39
2023-04-05T20:17:43.127Z,26.68
2023-04-05T20:20:11.411Z,26.44
2023-04-05T20:22:39.511Z,26.20
2023-04-05T20:25:33.265Z,26.26
2023-04-05T20:28:01.336Z,26.34
2023-04-05T20:30:29.737Z,26.27
2023-04-05T20:32:59.219Z,26.76
2023-04-05T20:35:34.268Z,26.32
2023-04-05T20:38:02.588Z,26.71
2023-04-05T20:40:30.357Z,26.81
2023-04-05T20:42:58.418Z,27.51
2023-04-05T20:45:26.319Z,27.36
2023-04-05T20:47:54.509Z,27.84
2023-04-05T20:50:22.391Z,27.85
2023-04-05T20:52:51.465Z,27.73
2023-04-05T20:55:19.161Z,29.25
2023-04-05T20:57:47.185Z,29.10
2023-04-05T21:00:15.064Z,29.59
2023-04-05T21:02:43.233Z,29.34
2023-04-05T21:05:11.225Z,29.83
2023-04-05T21:07:39.336Z,29.92
2023-04-05T21:10:07.311Z,29.28
2023-04-05T21:12:35.455Z,29.71
2023-04-05T21:15:03.195Z,30.28
2023-04-05T21:17:31.346Z,30.16
2023-04-05T21:19:59.015Z,30.55
2023-04-05T21:22:27.161Z,30.62
2023-04-05T21:24:54.834Z,30.28
2023-04-05T21:27:22.978Z,30.12
2023-04-05T21:29:50.676Z,30.01
2023-04-05T21:32:18.908Z,30.16
2023-04-05T21:34:46.743Z,30.13
2023-04-05T21:37:14.829Z,30.21
2023-04-05T21:39:42.606Z,30.36
2023-04-05T21:42:10.609Z,30.79
2023-04-05T21:44:38.325Z,30.31
2023-04-05T21:47:06.599Z,30.60
2023-04-05T21:49:34.428Z,30.73
2023-04-05T21:52:02.510Z,31.14
2023-04-05T21:54:30.257Z,30.89
2023-04-05T21:56:58.565Z,31.22
2023-04-05T21:59:26.343Z,30.97
2023-04-05T22:01:54.757Z,30.82
2023-04-05T22:04:24.140Z,31.04
2023-04-05T22:06:53.468Z,30.81
2023-04-05T22:09:21.535Z,30.80
2023-04-05T22:11:50.546Z,30.98
2023-04-05T22:14:18.229Z,31.07
2023-04-05T22:16:46.354Z,31.08
2023-04-05T22:19:14.878Z,31.42
2023-04-05T22:21:43.195Z,30.95
2023-04-05T22:24:11.509Z,31.08
2023-04-05T22:26:40.187Z,31.03
2023-04-05T22:29:08.189Z,31.29
2023-04-05T22:31:39.132Z,31.61
2023-04-05T22:34:07.008Z,31.79
2023-04-05T22:36:35.144Z,31.60
2023-04-05T22:39:02.814Z,31.66
2023-04-05T22:41:30.824Z,31.42
2023-04-05T22:43:58.621Z,31.85
2023-04-05T22:46:26.670Z,31.65
2023-04-05T22:48:55.362Z,31.58
2023-04-05T22:51:23.504Z,31.62
2023-04-05T22:53:51.348Z,31.85
2023-04-05T22:56:21.690Z,31.51
2023-04-05T22:58:49.833Z,31.45
2023-04-05T23:01:19.302Z,31.08
2023-04-05T23:03:47.296Z,30.90
2023-04-05T23:06:16.135Z,31.54
2023-04-05T23:08:43.846Z,31.76
2023-04-05T23:11:12.035Z,32.05
2023-04-05T23:13:39.791Z,32.44
2023-04-05T23:16:08.056Z,32.56
2023-04-05T23:18:35.867Z,32.38
2023-04-05T23:21:04.308Z,32.13
2023-04-05T23:23:32.019Z,32.06
2023-04-05T23:26:00.125Z,32.37
2023-04-05T23:28:27.865Z,32.40
2023-04-05T23:30:56.073Z,32.77
2023-04-05T23:33:23.745Z,32.60
2023-04-05T23:35:51.865Z,32.49
2023-04-05T23:38:19.623Z,32.19
2023-04-05T23:40:47.637Z,31.86
2023-04-05T23:43:15.770Z,32.27
2023-04-05T23:45:43.864Z,32.70
2023-04-05T23:48:11.602Z,32.90
2023-04-05T23:50:39.906Z,32.25
2023-04-05T23:53:07.601Z,31.86
2023-04-05T23:55:43.174Z,31.96
2023-04-05T23:58:11.014Z,32.41
